Time;durP1;ratioP1;P1;durP2;ratioP2;P2;SDS_P1;SDS_P2;PMS_P1;PMS_P2;Temp;Humidity;BMP_temperature;BMP_pressure;BME280_temperature;BME280_humidity;BME280_pressure;Samples;Min_cycle;Max_cycle;Signal;HPM_P1;HPM_P2
2023/03/07 00:01:41;;;;;;;0.10;0.10;;;;;;;-3.77;66.96;98408.97;5022347;28;20046;-73
2023/03/07 00:04:09;;;;;;;0.10;0.10;;;;;;;-3.77;66.98;98409.81;5013448;28;20050;-72
2023/03/07 00:06:35;;;;;;;0.10;0.10;;;;;;;-3.83;67.35;98413.34;5002636;28;20045;-73
2023/03/07 00:09:02;;;;;;;0.10;0.10;;;;;;;-3.86;67.55;98413.75;5023115;28;20052;-73
2023/03/07 00:11:29;;;;;;;0.10;0.10;;;;;;;-3.92;67.48;98415.44;5003484;28;20050;-72
2023/03/07 00:13:55;;;;;;;0.20;0.20;;;;;;;-3.94;67.32;98419.38;5008627;28;20041;-73
2023/03/07 00:16:22;;;;;;;0.10;0.10;;;;;;;-4.02;67.44;98410.56;5014064;28;20046;-74
2023/03/07 00:18:49;;;;;;;0.10;0.10;;;;;;;-4.01;67.20;98396.19;5019883;28;20045;-74
2023/03/07 00:21:18;;;;;;;0.10;0.10;;;;;;;-4.08;67.58;98402.59;5015612;28;20071;-74
2023/03/07 00:23:45;;;;;;;0.10;0.10;;;;;;;-4.18;67.81;98413.72;5016912;28;20045;-74
2023/03/07 00:26:13;;;;;;;0.17;0.17;;;;;;;-4.28;67.85;98404.34;4999832;28;20196;-74
2023/03/07 00:28:42;;;;;;;0.10;0.10;;;;;;;-4.41;68.13;98394.53;5016609;28;20068;-74
2023/03/07 00:31:10;;;;;;;0.10;0.10;;;;;;;-4.47;68.19;98403.38;5017460;28;20045;-75
2023/03/07 00:33:36;;;;;;;0.10;0.10;;;;;;;-4.47;68.57;98398.06;5016881;28;20041;-74
2023/03/07 00:36:05;;;;;;;0.17;0.17;;;;;;;-4.49;68.74;98405.44;5019971;28;20053;-74
2023/03/07 00:38:33;;;;;;;0.10;0.10;;;;;;;-4.43;68.42;98401.13;5022302;28;20420;-76
2023/03/07 00:41:01;;;;;;;0.10;0.10;;;;;;;-4.47;68.45;98397.22;5023564;28;20075;-75
2023/03/07 00:43:28;;;;;;;0.10;0.10;;;;;;;-4.49;68.28;98407.28;5026130;28;20061;-75
2023/03/07 00:45:55;;;;;;;0.10;0.10;;;;;;;-4.50;68.55;98397.66;5009418;28;20071;-75
2023/03/07 00:48:21;;;;;;;0.10;0.10;;;;;;;-4.63;68.72;98396.66;5024416;28;20052;-74
2023/03/07 00:50:48;;;;;;;0.20;0.10;;;;;;;-4.75;69.15;98385.03;5022912;28;20075;-74
2023/03/07 00:53:14;;;;;;;0.10;0.10;;;;;;;-4.70;69.23;98409.22;4983001;28;20860;-75
2023/03/07 00:55:53;;;;;;;0.10;0.10;;;;;;;-4.75;69.54;98412.50;4988007;28;20050;-74
2023/03/07 00:58:19;;;;;;;0.10;0.10;;;;;;;-4.76;69.88;98397.53;5014259;28;20049;-74
2023/03/07 01:00:46;;;;;;;0.10;0.10;;;;;;;-4.76;69.99;98408.19;5011712;28;20697;-73
2023/03/07 01:03:12;;;;;;;0.10;0.10;;;;;;;-4.64;69.94;98405.69;4992691;28;20045;-72
2023/03/07 01:05:38;;;;;;;0.10;0.10;;;;;;;-4.54;69.64;98391.09;5020194;28;20052;-72
2023/03/07 01:08:05;;;;;;;0.10;0.10;;;;;;;-4.49;69.40;98399.28;5019875;28;20570;-72
2023/03/07 01:10:32;;;;;;;0.10;0.10;;;;;;;-4.40;69.07;98403.38;5019278;28;20424;-73
2023/03/07 01:13:00;;;;;;;0.10;0.10;;;;;;;-4.41;69.09;98397.19;5020687;28;20077;-73
2023/03/07 01:15:27;;;;;;;0.10;0.10;;;;;;;-4.51;69.17;98390.69;5021751;28;20045;-72
2023/03/07 01:17:53;;;;;;;0.10;0.10;;;;;;;-4.51;69.76;98404.00;5010561;28;20287;-72
2023/03/07 01:20:20;;;;;;;0.10;0.10;;;;;;;-4.61;70.30;98396.47;5007511;28;20076;-72
2023/03/07 01:22:46;;;;;;;0.10;0.10;;;;;;;-4.66;70.75;98396.28;5022316;28;20797;-73
2023/03/07 01:25:12;;;;;;;0.10;0.10;;;;;;;-4.74;71.12;98384.78;5021187;28;20078;-72
2023/03/07 01:27:40;;;;;;;0.10;0.10;;;;;;;-4.74;71.45;98389.31;5006674;28;20088;-72
2023/03/07 01:30:10;;;;;;;0.10;0.10;;;;;;;-4.80;71.56;98390.97;5006063;28;20109;-72
2023/03/07 01:32:37;;;;;;;0.10;0.10;;;;;;;-4.94;72.63;98381.38;4997525;28;20124;-72
2023/03/07 01:35:04;;;;;;;0.10;0.10;;;;;;;-4.97;73.03;98397.78;5016091;28;20058;-72
2023/03/07 01:37:31;;;;;;;0.10;0.10;;;;;;;-5.09;73.68;98395.75;5008168;28;20053;-73
2023/03/07 01:39:57;;;;;;;0.20;0.20;;;;;;;-5.10;74.13;98396.78;5005585;28;20057;-73
2023/03/07 01:42:23;;;;;;;0.10;0.10;;;;;;;-5.12;74.51;98404.16;5024826;28;20049;-72
2023/03/07 01:45:03;;;;;;;0.10;0.10;;;;;;;-5.16;75.00;98398.41;5023376;28;20140;-72
2023/03/07 01:47:43;;;;;;;0.10;0.10;;;;;;;-5.15;75.08;98405.38;5020623;28;20057;-73
2023/03/07 01:50:11;;;;;;;;;;;;;;;-5.20;75.28;98399.03;5011182;28;20496;-72
2023/03/07 01:52:40;;;;;;;0.10;0.10;;;;;;;-5.25;75.65;98404.97;5004299;28;19990;-72
2023/03/07 01:55:12;;;;;;;0.10;0.10;;;;;;;-5.20;75.22;98410.53;5001531;28;20053;-73
2023/03/07 01:57:41;;;;;;;0.10;0.10;;;;;;;-5.11;75.00;98389.81;4996515;28;20034;-72
2023/03/07 02:00:12;;;;;;;0.10;0.10;;;;;;;-4.92;74.54;98400.63;5002826;28;20044;-73
2023/03/07 02:02:46;;;;;;;0.10;0.10;;;;;;;-4.78;73.82;98412.91;5005960;28;20147;-72
2023/03/07 02:05:22;;;;;;;0.10;0.10;;;;;;;-4.71;73.44;98403.03;4997920;28;20095;-72
2023/03/07 02:07:50;;;;;;;0.10;0.10;;;;;;;-4.63;72.81;98410.00;4992812;28;20055;-73
2023/03/07 02:10:21;;;;;;;0.07;0.07;;;;;;;-4.60;72.81;98403.44;5005158;28;20037;-73
2023/03/07 02:12:49;;;;;;;0.10;0.10;;;;;;;-4.50;72.46;98402.97;4997940;28;20046;-73
2023/03/07 02:15:15;;;;;;;;;;;;;;;-4.52;72.32;98403.22;5011634;28;20041;-74
2023/03/07 02:17:44;;;;;;;0.00;0.00;;;;;;;-4.53;72.09;98408.75;5020123;28;19932;-75
2023/03/07 02:20:23;;;;;;;0.10;0.10;;;;;;;-4.54;72.24;98410.59;5013338;28;20512;-74
2023/03/07 02:22:49;;;;;;;0.10;0.10;;;;;;;-4.57;72.63;98403.00;5014269;28;20038;-75
2023/03/07 02:25:23;;;;;;;0.10;0.10;;;;;;;-4.58;72.55;98398.69;5021478;28;20416;-75
2023/03/07 02:27:54;;;;;;;0.10;0.10;;;;;;;-4.51;72.36;98396.00;5015153;28;20054;-74
2023/03/07 02:30:22;;;;;;;0.10;0.10;;;;;;;-4.53;72.42;98403.41;4989409;28;20064;-74
2023/03/07 02:32:51;;;;;;;0.10;0.10;;;;;;;-4.52;72.51;98397.88;4975907;28;20099;-75
2023/03/07 02:35:19;;;;;;;0.10;0.10;;;;;;;-4.49;72.34;98397.44;5016726;28;20537;-74
2023/03/07 02:37:51;;;;;;;0.10;0.10;;;;;;;-4.46;72.31;98399.69;5009174;28;20100;-74
2023/03/07 02:40:21;;;;;;;0.10;0.10;;;;;;;-4.49;72.48;98400.13;5023131;28;20058;-75
2023/03/07 02:42:49;;;;;;;0.10;0.10;;;;;;;-4.53;72.72;98396.22;5018158;28;20057;-75
2023/03/07 02:45:18;;;;;;;0.10;0.10;;;;;;;-4.51;72.54;98396.84;5018044;28;20050;-74
2023/03/07 02:47:44;;;;;;;0.10;0.10;;;;;;;-4.57;72.72;98395.00;5014917;28;20517;-75
2023/03/07 02:50:14;;;;;;;0.10;0.10;;;;;;;-4.56;72.79;98392.13;5020361;28;20065;-74
2023/03/07 02:52:43;;;;;;;0.10;0.10;;;;;;;-4.48;72.75;98388.41;5002167;28;20060;-74
2023/03/07 02:55:10;;;;;;;0.10;0.10;;;;;;;-4.54;72.67;98391.91;5004036;28;20084;-75
2023/03/07 02:57:40;;;;;;;0.00;0.00;;;;;;;-4.57;72.75;98408.34;5010104;28;20073;-75
2023/03/07 03:00:10;;;;;;;0.10;0.10;;;;;;;-4.62;72.78;98382.28;5013077;28;20061;-74
2023/03/07 03:02:37;;;;;;;0.10;0.10;;;;;;;-4.51;72.94;98407.53;5019332;28;20116;-75
2023/03/07 03:05:05;;;;;;;0.10;0.10;;;;;;;-4.62;72.67;98394.81;5016657;28;20052;-74
2023/03/07 03:07:31;;;;;;;0.10;0.10;;;;;;;-4.67;73.14;98395.44;5023983;28;20053;-75
2023/03/07 03:10:00;;;;;;;0.10;0.10;;;;;;;-4.66;73.05;98393.63;5020656;28;20056;-74
2023/03/07 03:12:28;;;;;;;0.10;0.10;;;;;;;-4.68;73.13;98399.16;5025981;28;20508;-75
2023/03/07 03:14:55;;;;;;;0.10;0.10;;;;;;;-4.72;73.22;98397.94;5028159;28;20080;-75
2023/03/07 03:17:21;;;;;;;0.10;0.10;;;;;;;-4.73;73.60;98404.28;5003730;28;20416;-74
2023/03/07 03:19:49;;;;;;;0.10;0.10;;;;;;;-4.79;73.56;98402.44;5021212;28;20144;-75
2023/03/07 03:22:15;;;;;;;0.10;0.10;;;;;;;-4.82;73.69;98397.53;5024509;28;20132;-74
2023/03/07 03:24:45;;;;;;;0.10;0.10;;;;;;;-4.85;73.97;98396.94;4992177;28;20466;-74
2023/03/07 03:27:14;;;;;;;0.10;0.10;;;;;;;-4.96;74.31;98405.56;5002261;28;20049;-74
2023/03/07 03:29:43;;;;;;;0.10;0.10;;;;;;;-5.11;74.68;98405.81;5011324;28;20144;-75
2023/03/07 03:32:09;;;;;;;0.10;0.10;;;;;;;-5.19;75.25;98400.66;5006253;28;20049;-74
2023/03/07 03:34:36;;;;;;;0.10;0.10;;;;;;;-5.24;75.37;98405.81;5008184;28;20343;-73
2023/03/07 03:37:04;;;;;;;0.10;0.10;;;;;;;-5.26;75.41;98408.66;4998927;28;20100;-73
2023/03/07 03:39:30;;;;;;;0.10;0.10;;;;;;;-5.25;75.49;98417.50;5021688;28;20136;-73
2023/03/07 03:41:58;;;;;;;;;;;;;;;-5.18;75.14;98428.97;5006195;28;20052;-72
2023/03/07 03:44:24;;;;;;;0.10;0.10;;;;;;;-5.25;75.08;98426.28;5001701;28;20327;-72
2023/03/07 03:46:51;;;;;;;0.10;0.10;;;;;;;-5.27;75.04;98425.69;5004267;28;20123;-73
2023/03/07 03:49:19;;;;;;;0.20;0.20;;;;;;;-5.24;75.37;98419.94;5005376;28;20579;-75
2023/03/07 03:51:48;;;;;;;0.00;0.00;;;;;;;-5.17;75.05;98423.44;5014654;28;20140;-74
2023/03/07 03:54:16;;;;;;;0.00;0.00;;;;;;;-5.21;74.96;98405.41;5024344;28;20125;-74
2023/03/07 03:56:42;;;;;;;0.10;0.10;;;;;;;-5.07;74.62;98414.19;5015599;28;20139;-74
2023/03/07 03:59:08;;;;;;;0.10;0.10;;;;;;;-5.07;74.52;98409.69;5026413;28;20060;-74
2023/03/07 04:01:34;;;;;;;0.10;0.10;;;;;;;-5.08;74.28;98413.38;5019191;28;20073;-74
2023/03/07 04:04:01;;;;;;;0.10;0.10;;;;;;;-5.16;74.55;98403.75;5025954;28;20037;-72
2023/03/07 04:06:29;;;;;;;0.10;0.10;;;;;;;-5.17;74.57;98412.78;5023941;28;20049;-72
2023/03/07 04:08:56;;;;;;;0.10;0.10;;;;;;;-5.27;74.59;98399.88;4999396;28;20050;-72
2023/03/07 04:11:25;;;;;;;0.10;0.10;;;;;;;-5.20;74.80;98421.19;5005993;28;20083;-72
2023/03/07 04:13:51;;;;;;;0.00;0.00;;;;;;;-5.22;74.84;98419.75;5018286;28;20597;-71
2023/03/07 04:16:19;;;;;;;0.10;0.10;;;;;;;-5.28;74.71;98403.56;4992622;28;20152;-72
2023/03/07 04:18:45;;;;;;;0.10;0.10;;;;;;;-5.11;74.71;98419.13;5010255;28;20060;-72
2023/03/07 04:21:12;;;;;;;0.10;0.10;;;;;;;-5.09;74.97;98440.22;5016808;28;20041;-71
2023/03/07 04:23:39;;;;;;;0.10;0.10;;;;;;;-5.10;74.73;98427.94;5023851;28;20053;-71
2023/03/07 04:26:07;;;;;;;0.10;0.10;;;;;;;-5.07;74.39;98431.00;5022396;28;20330;-73
2023/03/07 04:28:44;;;;;;;;;;;;;;;-4.99;74.22;98425.47;5014665;28;20045;-72
2023/03/07 04:31:21;;;;;;;0.10;0.10;;;;;;;-4.99;74.00;98428.16;4980635;28;20006;-73
2023/03/07 04:33:48;;;;;;;0.10;0.10;;;;;;;-4.97;74.12;98427.13;5013975;28;20457;-72
2023/03/07 04:36:15;;;;;;;0.10;0.10;;;;;;;-4.88;73.93;98424.03;5011208;28;20413;-73
2023/03/07 04:38:42;;;;;;;0.10;0.10;;;;;;;-4.77;73.46;98432.41;5020999;28;20053;-73
2023/03/07 04:41:11;;;;;;;0.10;0.10;;;;;;;-4.82;73.25;98425.03;5000748;28;20060;-73
2023/03/07 04:43:39;;;;;;;0.10;0.10;;;;;;;-4.84;72.95;98437.75;5005461;28;20053;-72
2023/03/07 04:46:05;;;;;;;0.10;0.10;;;;;;;-4.89;73.58;98434.88;5024376;28;20051;-73
2023/03/07 04:48:32;;;;;;;0.10;0.10;;;;;;;-4.90;73.71;98433.25;5022913;28;20054;-73
2023/03/07 04:50:58;;;;;;;0.10;0.10;;;;;;;-4.76;73.46;98445.53;4668151;28;9999661;-75
2023/03/07 04:53:25;;;;;;;0.10;0.10;;;;;;;-4.72;73.29;98451.28;5002637;28;20041;-75
2023/03/07 04:55:57;;;;;;;0.10;0.10;;;;;;;-4.70;73.06;98446.56;4673729;28;10000126;-74
2023/03/07 04:58:23;;;;;;;0.10;0.10;;;;;;;-4.73;72.71;98428.31;4997517;28;20413;-74
2023/03/07 05:00:51;;;;;;;0.10;0.10;;;;;;;-4.57;72.97;98445.69;5018115;28;20724;-74
2023/03/07 05:03:17;;;;;;;0.10;0.10;;;;;;;-4.57;72.57;98440.34;5024731;28;20539;-74
2023/03/07 05:05:44;;;;;;;0.10;0.10;;;;;;;-4.50;72.27;98446.50;5019282;28;20099;-74
2023/03/07 05:08:10;;;;;;;0.10;0.10;;;;;;;-4.52;72.20;98445.06;5012200;28;20223;-74
2023/03/07 05:10:37;;;;;;;0.10;0.10;;;;;;;-4.45;71.78;98454.69;5017640;28;20187;-74
2023/03/07 05:13:03;;;;;;;0.10;0.10;;;;;;;-4.49;71.98;98449.97;5022347;28;20123;-74
2023/03/07 05:15:30;;;;;;;0.20;0.20;;;;;;;-4.46;72.06;98457.56;5015775;28;20072;-73
2023/03/07 05:17:57;;;;;;;0.20;0.20;;;;;;;-4.47;71.82;98470.09;5026593;28;20518;-74
2023/03/07 05:20:25;;;;;;;0.40;0.30;;;;;;;-4.51;71.82;98457.38;5021676;28;20133;-74
2023/03/07 05:22:52;;;;;;;0.10;0.10;;;;;;;-4.50;71.67;98465.19;5021932;28;20140;-74
2023/03/07 05:25:18;;;;;;;0.20;0.20;;;;;;;-4.50;72.00;98475.03;5009591;28;20509;-74
2023/03/07 05:27:44;;;;;;;0.20;0.20;;;;;;;-4.48;71.77;98471.13;5020213;28;20076;-74
2023/03/07 05:30:11;;;;;;;0.10;0.10;;;;;;;-4.38;71.57;98480.53;5018657;28;20072;-73
2023/03/07 05:32:38;;;;;;;0.10;0.10;;;;;;;-4.37;71.57;98472.31;5022872;28;20049;-74
2023/03/07 05:35:07;;;;;;;0.10;0.10;;;;;;;-4.34;70.95;98484.44;4998918;28;20304;-74
2023/03/07 05:37:34;;;;;;;0.17;0.17;;;;;;;-4.34;71.42;98479.91;4994780;28;20051;-74
2023/03/07 05:40:00;;;;;;;0.10;0.10;;;;;;;-4.27;71.00;98491.41;5004340;28;20521;-74
2023/03/07 05:42:27;;;;;;;0.10;0.10;;;;;;;-4.31;70.96;98466.13;5009995;28;20548;-74
2023/03/07 05:44:53;;;;;;;0.10;0.10;;;;;;;-4.11;70.66;98488.47;5009892;28;20065;-74
2023/03/07 05:47:19;;;;;;;0.10;0.10;;;;;;;-4.06;70.48;98492.16;4995187;28;20535;-74
2023/03/07 05:49:46;;;;;;;0.10;0.10;;;;;;;-3.93;70.32;98490.47;5008283;28;20060;-74
2023/03/07 05:52:14;;;;;;;0.10;0.10;;;;;;;-3.95;69.89;98495.19;4992243;28;20141;-74
2023/03/07 05:54:40;;;;;;;0.15;0.15;;;;;;;-3.94;69.90;98489.63;5012730;28;20304;-73
2023/03/07 05:57:06;;;;;;;0.10;0.10;;;;;;;-3.86;69.57;98481.38;5021568;28;20046;-74
2023/03/07 05:59:33;;;;;;;0.17;0.17;;;;;;;-3.77;69.48;98487.28;5017659;28;20144;-74
2023/03/07 06:01:59;;;;;;;0.10;0.10;;;;;;;-3.74;69.28;98480.72;5017262;28;20045;-73
2023/03/07 06:04:26;;;;;;;0.20;0.20;;;;;;;-3.74;69.07;98475.38;4985908;28;20049;-73
2023/03/07 06:06:52;;;;;;;0.20;0.20;;;;;;;-3.69;68.81;98488.91;5018625;28;20107;-72
2023/03/07 06:09:22;;;;;;;0.10;0.10;;;;;;;-3.66;68.62;98496.47;5005654;28;20584;-73
2023/03/07 06:11:49;;;;;;;0.20;0.20;;;;;;;-3.77;68.43;98478.44;5022946;28;20535;-73
2023/03/07 06:14:15;;;;;;;0.10;0.10;;;;;;;-3.76;68.72;98491.59;5022330;28;20060;-73
2023/03/07 06:16:41;;;;;;;0.20;0.20;;;;;;;-3.76;68.85;98496.13;5024034;28;20069;-74
2023/03/07 06:19:08;;;;;;;0.30;0.30;;;;;;;-3.64;68.56;98497.09;5036103;28;20464;-74
2023/03/07 06:21:34;;;;;;;0.20;0.20;;;;;;;-3.35;67.93;98489.50;5009742;28;20383;-74
2023/03/07 06:24:00;;;;;;;0.20;0.20;;;;;;;-3.09;66.86;98487.69;4994337;28;20052;-74
2023/03/07 06:26:28;;;;;;;0.30;0.30;;;;;;;-2.89;65.75;98481.34;5018223;28;20509;-75
2023/03/07 06:28:55;;;;;;;0.20;0.20;;;;;;;-2.69;65.50;98497.22;5016941;28;20049;-75
2023/03/07 06:31:24;;;;;;;0.20;0.20;;;;;;;-2.59;64.76;98488.69;5052567;28;20049;-73
2023/03/07 06:33:50;;;;;;;0.10;0.10;;;;;;;-2.63;64.34;98504.38;5022080;28;20107;-74
2023/03/07 06:36:19;;;;;;;0.20;0.20;;;;;;;-2.73;64.73;98488.81;5024540;28;20056;-74
2023/03/07 06:38:48;;;;;;;0.20;0.20;;;;;;;-2.72;64.67;98489.66;5006209;28;20216;-74
2023/03/07 06:41:15;;;;;;;0.20;0.20;;;;;;;-2.65;64.91;98498.41;5006919;28;20054;-74
2023/03/07 06:43:43;;;;;;;0.28;0.28;;;;;;;-2.60;64.56;98501.25;5024916;28;20056;-74
2023/03/07 06:46:09;;;;;;;0.20;0.20;;;;;;;-2.47;64.77;98512.88;5028257;28;20196;-74
2023/03/07 06:48:39;;;;;;;0.20;0.20;;;;;;;-2.44;64.27;98499.88;5010000;28;20050;-74
2023/03/07 06:51:09;;;;;;;0.20;0.20;;;;;;;-2.32;64.22;98510.66;5027742;28;20060;-75
2023/03/07 06:53:37;;;;;;;0.20;0.20;;;;;;;-2.25;63.38;98515.94;5031317;28;20464;-74
2023/03/07 06:56:04;;;;;;;0.20;0.20;;;;;;;-2.25;63.80;98515.94;5031122;28;20553;-74
2023/03/07 06:58:32;;;;;;;0.20;0.20;;;;;;;-2.17;63.07;98514.84;5062954;28;20116;-74
2023/03/07 07:01:00;;;;;;;0.20;0.20;;;;;;;-2.18;62.72;98519.38;5045032;28;20049;-74
2023/03/07 07:03:26;;;;;;;0.20;0.20;;;;;;;-2.17;63.07;98512.16;5028456;28;20049;-74
2023/03/07 07:05:52;;;;;;;0.20;0.20;;;;;;;-2.18;62.91;98518.56;5031886;28;20049;-74
2023/03/07 07:08:19;;;;;;;0.20;0.20;;;;;;;-2.27;63.00;98520.72;5030831;28;20537;-74
2023/03/07 07:10:45;;;;;;;0.20;0.20;;;;;;;-2.26;62.99;98529.53;5029909;28;20449;-76
2023/03/07 07:13:12;;;;;;;0.13;0.13;;;;;;;-2.33;63.03;98538.47;5027494;28;20041;-74
2023/03/07 07:15:38;;;;;;;0.20;0.20;;;;;;;-2.38;63.34;98530.31;5027642;28;20046;-74
2023/03/07 07:18:06;;;;;;;0.20;0.20;;;;;;;-2.41;63.38;98528.06;5026327;28;20131;-74
2023/03/07 07:20:34;;;;;;;0.20;0.20;;;;;;;-2.37;62.57;98528.41;5028625;28;20056;-74
2023/03/07 07:23:01;;;;;;;0.20;0.20;;;;;;;-2.45;63.31;98543.75;5028984;28;20512;-74
2023/03/07 07:25:27;;;;;;;0.30;0.20;;;;;;;-2.44;62.99;98540.03;5011185;28;20077;-74
2023/03/07 07:27:53;;;;;;;0.20;0.20;;;;;;;-2.59;62.86;98529.66;5041089;28;20058;-74
2023/03/07 07:30:19;;;;;;;0.20;0.20;;;;;;;-2.59;63.06;98543.03;5040323;28;20145;-74
2023/03/07 07:32:46;;;;;;;0.20;0.20;;;;;;;-2.53;63.33;98541.34;5020436;28;20045;-74
2023/03/07 07:35:14;;;;;;;0.20;0.20;;;;;;;-2.31;62.76;98536.38;5029233;28;20049;-73
2023/03/07 07:37:41;;;;;;;0.20;0.20;;;;;;;-2.25;62.27;98536.56;5029068;28;20065;-73
2023/03/07 07:40:11;;;;;;;0.20;0.20;;;;;;;-2.28;61.88;98527.09;5027556;28;20513;-74
2023/03/07 07:42:38;;;;;;;0.20;0.20;;;;;;;-2.21;61.77;98533.19;5027161;28;20144;-74
2023/03/07 07:45:16;;;;;;;0.20;0.20;;;;;;;-2.14;61.58;98550.03;5025557;28;20049;-74
2023/03/07 07:47:42;;;;;;;0.20;0.20;;;;;;;-2.22;61.85;98547.63;5027416;28;20140;-74
2023/03/07 07:50:09;;;;;;;0.20;0.20;;;;;;;-2.27;61.91;98534.09;5030170;28;20588;-74
2023/03/07 07:52:37;;;;;;;0.32;0.22;;;;;;;-2.36;61.97;98546.13;5028303;28;20052;-74
2023/03/07 07:55:04;;;;;;;0.10;0.10;;;;;;;-2.45;62.45;98537.56;5009692;28;20917;-74
2023/03/07 07:57:30;;;;;;;0.10;0.10;;;;;;;-2.31;62.58;98539.06;5028531;28;20076;-74
2023/03/07 07:59:57;;;;;;;0.20;0.20;;;;;;;-2.06;62.04;98532.00;5028571;28;20320;-74
2023/03/07 08:02:24;;;;;;;0.20;0.20;;;;;;;-1.88;61.45;98520.47;4995042;28;20471;-74
2023/03/07 08:04:50;;;;;;;0.30;0.30;;;;;;;-1.88;61.16;98528.53;5028261;28;20058;-74
2023/03/07 08:07:17;;;;;;;0.40;0.30;;;;;;;-1.63;61.11;98530.28;5030807;28;20049;-74
2023/03/07 08:09:44;;;;;;;0.22;0.22;;;;;;;-1.35;60.20;98532.38;5029321;28;20388;-75
2023/03/07 08:12:11;;;;;;;0.30;0.30;;;;;;;-1.06;59.80;98531.75;5029297;28;20041;-74
2023/03/07 08:14:37;;;;;;;0.30;0.30;;;;;;;-0.89;58.85;98526.56;5029753;28;20075;-74
2023/03/07 08:17:03;;;;;;;0.30;0.30;;;;;;;0.07;57.79;98532.72;5029229;28;20407;-74
2023/03/07 08:19:30;;;;;;;0.40;0.40;;;;;;;0.90;54.50;98537.00;5029862;28;20041;-75
2023/03/07 08:21:56;;;;;;;0.20;0.20;;;;;;;1.31;52.43;98534.97;5029029;28;20095;-75
2023/03/07 08:24:22;;;;;;;0.30;0.30;;;;;;;1.06;52.56;98536.19;5028273;28;20045;-75
2023/03/07 08:26:50;;;;;;;0.30;0.30;;;;;;;1.13;52.95;98533.34;5026122;28;20148;-75
2023/03/07 08:29:16;;;;;;;0.30;0.30;;;;;;;1.62;52.22;98529.25;5007804;28;20041;-75
2023/03/07 08:31:44;;;;;;;0.30;0.30;;;;;;;2.31;50.36;98524.50;5023707;28;20045;-75
2023/03/07 08:34:10;;;;;;;0.30;0.30;;;;;;;2.74;48.53;98536.31;5021509;28;20309;-75
2023/03/07 08:36:36;;;;;;;0.30;0.30;;;;;;;2.85;47.69;98529.13;5027775;28;20481;-75
2023/03/07 08:39:03;;;;;;;0.30;0.30;;;;;;;3.05;47.80;98525.81;5026383;28;20053;-75
2023/03/07 08:41:29;;;;;;;0.30;0.30;;;;;;;3.26;47.29;98534.88;5011961;28;20115;-74
2023/03/07 08:43:57;;;;;;;0.30;0.30;;;;;;;3.54;46.15;98519.44;5027816;28;20049;-75
2023/03/07 08:46:23;;;;;;;0.30;0.30;;;;;;;3.73;45.79;98531.72;5028608;28;20050;-75
2023/03/07 08:48:49;;;;;;;0.30;0.30;;;;;;;3.74;44.94;98515.22;5028759;28;20057;-75
2023/03/07 08:51:17;;;;;;;0.30;0.30;;;;;;;3.66;45.52;98516.53;5008836;28;20045;-75
2023/03/07 08:53:43;;;;;;;0.30;0.30;;;;;;;4.23;44.82;98514.13;5028219;28;20091;-76
2023/03/07 08:56:11;;;;;;;0.30;0.30;;;;;;;4.72;43.85;98503.19;5030773;28;20059;-75
2023/03/07 08:58:38;;;;;;;0.30;0.30;;;;;;;5.05;42.91;98512.69;5031090;28;20674;-75
2023/03/07 09:01:07;;;;;;;0.30;0.30;;;;;;;5.22;42.07;98509.72;5031239;28;20052;-75
2023/03/07 09:03:34;;;;;;;0.30;0.30;;;;;;;5.07;41.83;98477.22;5026939;28;20140;-75
2023/03/07 09:06:00;;;;;;;0.30;0.30;;;;;;;5.31;41.64;98510.00;5027626;28;20069;-76
2023/03/07 09:08:26;;;;;;;0.30;0.30;;;;;;;5.36;41.49;98509.19;5025912;28;20056;-76
2023/03/07 09:10:53;;;;;;;0.30;0.30;;;;;;;5.53;40.99;98508.88;5026244;28;20053;-76
2023/03/07 09:13:19;;;;;;;0.30;0.30;;;;;;;5.72;41.05;98498.28;5026326;28;20084;-75
2023/03/07 09:15:45;;;;;;;0.40;0.40;;;;;;;5.91;40.89;98495.81;5027013;28;20049;-76
2023/03/07 09:18:12;;;;;;;0.40;0.40;;;;;;;6.29;40.02;98500.88;5026727;28;20049;-76
2023/03/07 09:20:39;;;;;;;0.50;0.50;;;;;;;6.61;39.03;98499.63;5028952;28;20052;-76
2023/03/07 09:23:06;;;;;;;0.40;0.40;;;;;;;6.30;39.31;98507.09;5027944;28;20136;-76
2023/03/07 09:25:32;;;;;;;0.40;0.40;;;;;;;6.60;38.98;98499.88;5027092;28;20147;-76
2023/03/07 09:28:00;;;;;;;0.50;0.50;;;;;;;6.73;38.71;98509.34;5025713;28;20060;-76
2023/03/07 09:30:27;;;;;;;0.50;0.50;;;;;;;7.11;37.98;98515.06;5027880;28;20060;-76
2023/03/07 09:32:54;;;;;;;0.40;0.40;;;;;;;7.40;37.52;98508.03;5027129;28;20483;-76
2023/03/07 09:35:21;;;;;;;0.60;0.60;;;;;;;7.43;37.08;98512.91;5029068;28;20064;-77
2023/03/07 09:37:48;;;;;;;0.50;0.50;;;;;;;7.23;37.12;98509.25;5011442;28;20045;-76
2023/03/07 09:40:17;;;;;;;0.50;0.50;;;;;;;7.26;36.71;98500.53;5026120;28;20526;-76
2023/03/07 09:42:54;;;;;;;0.50;0.50;;;;;;;6.81;37.49;98503.28;5025510;28;20089;-76
2023/03/07 09:45:32;;;;;;;0.50;0.50;;;;;;;6.65;37.59;98495.25;5026612;28;20132;-76
2023/03/07 09:48:47;;;;;;;0.60;0.60;;;;;;;7.14;37.08;98503.59;5026614;28;20416;-77
2023/03/07 09:51:20;;;;;;;0.60;0.60;;;;;;;7.19;36.67;98506.31;5008423;28;20045;-76
2023/03/07 09:53:52;;;;;;;0.60;0.60;;;;;;;7.34;36.72;98512.72;5024910;28;20307;-76
2023/03/07 09:56:23;;;;;;;0.70;0.70;;;;;;;7.72;36.09;98506.63;5008219;28;20049;-77
2023/03/07 09:58:58;;;;;;;0.60;0.60;;;;;;;7.86;35.31;98463.25;5026421;28;20058;-76
2023/03/07 10:01:26;;;;;;;0.60;0.60;;;;;;;7.99;35.54;98497.94;5026312;28;20042;-77
2023/03/07 10:03:58;;;;;;;0.70;0.70;;;;;;;7.72;35.54;98490.31;5027648;28;20045;-76
2023/03/07 10:06:32;;;;;;;0.60;0.60;;;;;;;7.60;35.91;98504.31;5027990;28;20491;-76
2023/03/07 10:08:59;;;;;;;0.60;0.60;;;;;;;7.27;36.02;98493.19;5025652;28;20049;-75
2023/03/07 10:11:34;;;;;;;;;;;;;;;7.43;35.88;98483.00;5027782;28;20045;-77
2023/03/07 10:14:32;;;;;;;0.60;0.60;;;;;;;7.63;35.30;98482.78;5027500;28;19925;-76
2023/03/07 10:17:07;;;;;;;0.70;0.70;;;;;;;7.82;35.22;98503.03;5026209;28;20063;-76
2023/03/07 10:19:42;;;;;;;0.70;0.70;;;;;;;7.96;35.01;98487.63;5027338;28;20424;-76
2023/03/07 10:22:18;;;;;;;0.60;0.60;;;;;;;7.44;35.11;98495.50;5027437;28;20049;-77
2023/03/07 10:25:07;;;;;;;0.60;0.60;;;;;;;7.33;35.36;98487.41;5026486;28;20049;-76
2023/03/07 10:27:34;;;;;;;0.70;0.70;;;;;;;7.72;34.83;98480.25;5026977;28;20147;-77
2023/03/07 10:30:08;;;;;;;0.70;0.70;;;;;;;8.05;34.30;98474.97;5025884;28;20162;-76
2023/03/07 10:32:39;;;;;;;0.70;0.70;;;;;;;8.74;33.30;98465.66;5027176;28;20045;-77
2023/03/07 10:35:16;;;;;;;0.80;0.80;;;;;;;8.90;32.99;98469.00;5022362;28;20396;-77
2023/03/07 10:37:51;;;;;;;;;;;;;;;9.15;32.20;98480.59;5020704;28;20045;-78
2023/03/07 10:40:24;;;;;;;0.90;0.90;;;;;;;8.13;32.64;98472.75;5022620;28;20315;-77
2023/03/07 10:42:51;;;;;;;0.70;0.70;;;;;;;8.16;33.03;98462.06;5013198;28;20057;-77
2023/03/07 10:45:17;;;;;;;0.80;0.80;;;;;;;8.25;32.68;98454.03;5023928;28;20057;-77
2023/03/07 10:47:44;;;;;;;0.60;0.60;;;;;;;8.43;32.37;98454.34;5006423;28;20049;-77
2023/03/07 10:50:33;;;;;;;0.40;0.40;;;;;;;7.52;33.44;98457.59;5026449;28;20100;-77
2023/03/07 10:53:03;;;;;;;0.50;0.50;;;;;;;6.74;34.74;98462.06;5024313;28;20394;-77
2023/03/07 10:55:35;;;;;;;0.60;0.60;;;;;;;6.69;34.81;98457.47;5026715;28;20064;-77
2023/03/07 10:58:20;;;;;;;0.57;0.57;;;;;;;6.95;34.08;98471.69;5025671;28;20115;-76
2023/03/07 11:00:59;;;;;;;0.30;0.30;;;;;;;6.52;34.60;98439.66;5024001;28;20038;-77
2023/03/07 11:03:30;;;;;;;0.40;0.40;;;;;;;6.24;35.02;98450.13;5024398;28;20589;-76
2023/03/07 11:05:56;;;;;;;0.40;0.40;;;;;;;5.74;35.58;98457.34;5025802;28;20512;-76
2023/03/07 11:08:30;;;;;;;0.50;0.50;;;;;;;5.25;36.71;98448.75;4988023;28;20567;-76
2023/03/07 11:10:57;;;;;;;0.50;0.50;;;;;;;5.29;36.78;98457.97;5023041;28;20073;-77
2023/03/07 11:13:23;;;;;;;0.50;0.50;;;;;;;5.47;36.74;98451.16;5000060;28;20060;-77
2023/03/07 11:15:51;;;;;;;0.40;0.40;;;;;;;5.74;36.53;98455.44;5012237;28;20046;-77
2023/03/07 11:18:29;;;;;;;0.50;0.50;;;;;;;5.52;36.68;98436.78;5019044;28;20551;-76
2023/03/07 11:20:56;;;;;;;0.40;0.40;;;;;;;5.40;37.15;98447.91;5019099;28;20053;-76
2023/03/07 11:23:26;;;;;;;0.32;0.32;;;;;;;5.20;37.07;98436.03;5020131;28;20072;-76
2023/03/07 11:25:56;;;;;;;0.40;0.40;;;;;;;4.91;37.69;98442.00;5021202;28;20111;-77
2023/03/07 11:28:25;;;;;;;0.40;0.40;;;;;;;4.77;37.75;98449.84;5015927;28;20058;-77
2023/03/07 11:30:59;;;;;;;0.30;0.30;;;;;;;4.13;38.00;98435.63;5023013;28;20136;-76
2023/03/07 11:33:32;;;;;;;0.30;0.30;;;;;;;3.55;39.12;98452.69;5021579;28;20054;-76
2023/03/07 11:36:00;;;;;;;0.30;0.30;;;;;;;3.22;40.29;98444.63;5026785;28;20046;-77
2023/03/07 11:38:35;;;;;;;0.22;0.22;;;;;;;3.03;40.71;98452.31;5023059;28;20049;-76
2023/03/07 11:41:09;;;;;;;0.20;0.20;;;;;;;2.73;41.63;98452.88;5018678;28;20037;-76
2023/03/07 11:43:52;;;;;;;0.30;0.30;;;;;;;2.62;41.91;98452.78;5023141;28;20053;-76